Flight Track Log - Related Links

Times and Time Zones

All times are in EDT time to prevent confusion due to time zone crossing. See the AAL1219 flight status page for this flight to view local times or setup timezone preferences in your user account.

Time Position Orientation Groundspeed Altitude Reporting Facility
EDT Latitude Longitude Course Direction KTS MPH feet Rate Location/Type
Fri 12:00:31 AM 32.8833 -97.0333 196° South 187 215 1,400  Level Dallas / Fort Worth TRACON
Fri 12:01:25 AM 32.8333 -97.0333 180° South 215 247 3,000 2,340 Climbing Dallas / Fort Worth TRACON
Fri 12:02:00 AM 32.6807 -97.1333 157° South  Level Estimated
Fri 12:02:52 AM 32.7400 -97.0322 179° South 251 289 6,900  Level Fort Worth Center
Fri 12:03:00 AM 32.5726 -97.1808 196° South  Level Estimated
Fri 12:03:53 AM 32.6631 -97.0275 177° South 273 314 9,700  Level Fort Worth Center
Fri 12:04:00 AM 32.4644 -97.2282 190° South  Level Estimated
Fri 12:04:54 AM 32.5842 -97.0639 201° Southwest 315 362 11,300  Level Fort Worth Center
Fri 12:05:00 AM 32.3563 -97.2755 196° South  Level Estimated
Fri 12:05:55 AM 32.4961 -97.1161 207° Southwest 358 412 13,400  Level Fort Worth Center
Fri 12:06:56 AM 32.3811 -97.1325 187° South 384 442 16,400 2,459 Climbing Fort Worth Center
Fri 12:07:57 AM 32.2731 -97.1569 191° South 392 451 18,400 1,918 Climbing Fort Worth Center
Fri 12:08:58 AM 32.1592 -97.1764 188° South 413 475 20,300 1,918 Climbing Fort Worth Center
Fri 12:09:59 AM 32.0403 -97.2017 190° South 421 484 22,300 1,721 Climbing Fort Worth Center
Fri 12:11:00 AM 31.9350 -97.2208 189° South 433 498 23,800 1,525 Climbing Fort Worth Center
Fri 12:12:01 AM 31.8133 -97.2461 190° South 442 509 25,400 1,525 Climbing Fort Worth Center
Fri 12:13:02 AM 31.6875 -97.2711 190° South 454 522 26,900 1,672 Climbing Fort Worth Center
Fri 12:14:03 AM 31.5503 -97.3469 205° Southwest 457 526 28,800 1,525 Climbing Fort Worth Center
Fri 12:15:04 AM 31.4386 -97.4144 207° Southwest 457 526 30,000 590 Climbing Fort Worth Center
Fri 12:16:05 AM 31.3261 -97.4772 205° Southwest 453 521 30,000  Level Fort Worth Center
Fri 12:17:06 AM 31.2136 -97.5406 206° Southwest 453 521 30,000  Level Fort Worth Center
Fri 12:18:07 AM 31.1019 -97.6058 207° Southwest 452 520 30,000  Level Fort Worth Center
Fri 12:19:07 AM 30.9897 -97.6689 206° Southwest 452 520 30,000 -298 Level Fort Worth Center
Fri 12:20:08 AM 30.8775 -97.7303 205° Southwest 452 520 29,400 -1,351 Descending Fort Worth Center
Fri 12:20:58 AM 30.7850 -97.7806 205° Southwest 453 521 27,500 -2,486 Descending Houston Center
Fri 12:21:59 AM 30.6489 -97.8553 205° Southwest 455 524 24,800 -2,430 Descending Houston Center
Fri 12:22:59 AM 30.5381 -97.9181 206° Southwest 448 516 22,600 -2,182 Descending Houston Center
Fri 12:24:00 AM 30.4317 -97.9758 205° Southwest 427 491 20,400 -2,182 Descending Houston Center
Fri 12:25:00 AM 30.3297 -98.0331 206° Southwest 415 478 18,200 -2,085 Descending Houston Center
Fri 12:25:58 AM 30.2353 -98.0875 206° Southwest 391 450 16,300 -2,033 Descending Houston Center
Fri 12:27:01 AM 30.1344 -98.1417 205° Southwest 377 434 14,100 -1,597 Descending Houston Center
Fri 12:28:02 AM 30.0458 -98.1978 209° Southwest 364 419 13,000 -885 Descending Houston Center
Fri 12:29:03 AM 29.9633 -98.2533 210° Southwest 341 392 12,300 -893 Descending Houston Center
Fri 12:30:03 AM 29.8886 -98.3011 209° Southwest 311 358 11,200 -1,438 Descending Houston Center
Fri 12:31:04 AM 29.8122 -98.3511 210° Southwest 299 344 9,400 -1,636 Descending Houston Center
Fri 12:32:04 AM 29.7439 -98.3964 210° Southwest 288 331 7,900 -1,537 Descending Houston Center
Fri 12:33:05 AM 29.6856 -98.4539 221° Southwest 282 325 6,300 -1,488 Descending Houston Center
Fri 12:34:05 AM 29.6342 -98.5178 227° Southwest 279 321 4,900 -1,140 Descending Houston Center
Fri 12:35:06 AM 29.5856 -98.5814 229° Southwest 270 311 4,000 -545 Descending Houston Center
Fri 12:36:06 AM 29.5314 -98.6117 206° Southwest 218 251 3,800 -744 Descending Houston Center
Fri 12:37:07 AM 29.4831 -98.5881 157° South 198 228 2,500 -624 Descending Houston Center
Fri 12:38:11 AM 29.4728 -98.5372 103° East 173 199 2,500 -446 Level Houston Center
Fri 12:39:08 AM 29.4994 -98.4947 54° Northeast 172 198 1,600 -872 Descending Houston Center
Fri 12:40:08 AM 29.5250 -98.4683 42° Northeast 149 171 800 -800 Descending Houston Center

Login

Don't have an account? Register now (free) for customized features, flight alerts, and more!